sensor_id;sensor_type;location;lat;lon;timestamp;temperature;humidity
20526;DHT22;10421;49.142;9.232;2023-06-22T00:01:16;25.90;96.30
20526;DHT22;10421;49.142;9.232;2023-06-22T00:03:42;25.90;96.30
20526;DHT22;10421;49.142;9.232;2023-06-22T00:06:09;25.80;96.40
20526;DHT22;10421;49.142;9.232;2023-06-22T00:08:36;25.80;96.70
20526;DHT22;10421;49.142;9.232;2023-06-22T00:11:02;25.70;96.80
20526;DHT22;10421;49.142;9.232;2023-06-22T00:13:30;25.70;96.90
20526;DHT22;10421;49.142;9.232;2023-06-22T00:15:57;25.70;97.10
20526;DHT22;10421;49.142;9.232;2023-06-22T00:18:24;25.70;97.20
20526;DHT22;10421;49.142;9.232;2023-06-22T00:20:54;25.80;97.30
20526;DHT22;10421;49.142;9.232;2023-06-22T00:23:23;25.80;97.30
20526;DHT22;10421;49.142;9.232;2023-06-22T00:25:50;25.80;97.30
20526;DHT22;10421;49.142;9.232;2023-06-22T00:28:17;25.70;97.30
20526;DHT22;10421;49.142;9.232;2023-06-22T00:30:45;25.70;97.30
20526;DHT22;10421;49.142;9.232;2023-06-22T00:33:13;25.70;97.40
20526;DHT22;10421;49.142;9.232;2023-06-22T00:35:39;25.70;97.40
20526;DHT22;10421;49.142;9.232;2023-06-22T00:38:06;25.70;97.40
20526;DHT22;10421;49.142;9.232;2023-06-22T00:40:33;25.70;97.40
20526;DHT22;10421;49.142;9.232;2023-06-22T00:43:00;25.70;97.40
20526;DHT22;10421;49.142;9.232;2023-06-22T00:45:27;25.70;97.40
20526;DHT22;10421;49.142;9.232;2023-06-22T00:47:56;25.70;97.40
20526;DHT22;10421;49.142;9.232;2023-06-22T00:50:26;25.70;97.50
20526;DHT22;10421;49.142;9.232;2023-06-22T00:52:55;25.70;97.50
20526;DHT22;10421;49.142;9.232;2023-06-22T00:55:24;25.70;97.50
20526;DHT22;10421;49.142;9.232;2023-06-22T00:57:51;25.70;97.50
20526;DHT22;10421;49.142;9.232;2023-06-22T01:00:21;25.80;97.60
20526;DHT22;10421;49.142;9.232;2023-06-22T01:02:50;25.80;97.50
20526;DHT22;10421;49.142;9.232;2023-06-22T01:05:20;25.80;97.60
20526;DHT22;10421;49.142;9.232;2023-06-22T01:07:59;25.70;97.60
20526;DHT22;10421;49.142;9.232;2023-06-22T01:10:31;25.70;97.80
20526;DHT22;10421;49.142;9.232;2023-06-22T01:13:02;25.80;97.80
20526;DHT22;10421;49.142;9.232;2023-06-22T01:15:33;25.70;97.70
20526;DHT22;10421;49.142;9.232;2023-06-22T01:18:04;25.60;97.80
20526;DHT22;10421;49.142;9.232;2023-06-22T01:20:34;25.60;97.90
20526;DHT22;10421;49.142;9.232;2023-06-22T01:23:10;25.60;97.90
20526;DHT22;10421;49.142;9.232;2023-06-22T01:25:45;25.60;98.00
20526;DHT22;10421;49.142;9.232;2023-06-22T01:28:24;25.60;98.00
20526;DHT22;10421;49.142;9.232;2023-06-22T01:30:54;25.60;98.10
20526;DHT22;10421;49.142;9.232;2023-06-22T01:33:30;25.60;98.00
20526;DHT22;10421;49.142;9.232;2023-06-22T01:35:58;25.60;98.00
20526;DHT22;10421;49.142;9.232;2023-06-22T01:38:27;25.60;97.90
20526;DHT22;10421;49.142;9.232;2023-06-22T01:40:54;25.50;97.90
20526;DHT22;10421;49.142;9.232;2023-06-22T01:43:21;25.60;98.00
20526;DHT22;10421;49.142;9.232;2023-06-22T01:45:49;25.50;98.00
20526;DHT22;10421;49.142;9.232;2023-06-22T01:48:17;25.50;98.10
20526;DHT22;10421;49.142;9.232;2023-06-22T01:50:45;25.40;98.10
20526;DHT22;10421;49.142;9.232;2023-06-22T01:53:11;25.30;98.20
20526;DHT22;10421;49.142;9.232;2023-06-22T01:55:38;25.20;98.30
20526;DHT22;10421;49.142;9.232;2023-06-22T01:58:05;25.10;98.50
20526;DHT22;10421;49.142;9.232;2023-06-22T02:00:35;25.00;98.70
20526;DHT22;10421;49.142;9.232;2023-06-22T02:03:09;25.00;98.90
20526;DHT22;10421;49.142;9.232;2023-06-22T02:05:45;24.90;99.10
20526;DHT22;10421;49.142;9.232;2023-06-22T02:08:15;24.80;99.10
20526;DHT22;10421;49.142;9.232;2023-06-22T02:10:44;24.80;99.20
20526;DHT22;10421;49.142;9.232;2023-06-22T02:13:13;24.80;99.20
20526;DHT22;10421;49.142;9.232;2023-06-22T02:15:40;24.80;99.30
20526;DHT22;10421;49.142;9.232;2023-06-22T02:18:08;24.70;99.30
20526;DHT22;10421;49.142;9.232;2023-06-22T02:20:37;24.70;99.40
20526;DHT22;10421;49.142;9.232;2023-06-22T02:23:05;24.60;99.40
20526;DHT22;10421;49.142;9.232;2023-06-22T02:25:32;24.60;99.50
20526;DHT22;10421;49.142;9.232;2023-06-22T02:27:59;24.60;99.60
20526;DHT22;10421;49.142;9.232;2023-06-22T02:30:26;24.60;99.60
20526;DHT22;10421;49.142;9.232;2023-06-22T02:32:53;24.60;99.70
20526;DHT22;10421;49.142;9.232;2023-06-22T02:35:24;24.50;99.70
20526;DHT22;10421;49.142;9.232;2023-06-22T02:37:52;24.60;99.70
20526;DHT22;10421;49.142;9.232;2023-06-22T02:40:19;24.50;99.70
20526;DHT22;10421;49.142;9.232;2023-06-22T02:42:46;24.50;99.70
20526;DHT22;10421;49.142;9.232;2023-06-22T02:45:13;24.50;99.70
20526;DHT22;10421;49.142;9.232;2023-06-22T02:47:40;24.50;99.70
20526;DHT22;10421;49.142;9.232;2023-06-22T02:50:07;24.40;99.70
20526;DHT22;10421;49.142;9.232;2023-06-22T02:52:34;24.40;99.80
20526;DHT22;10421;49.142;9.232;2023-06-22T02:55:02;24.40;99.80
20526;DHT22;10421;49.142;9.232;2023-06-22T02:57:29;24.40;99.80
20526;DHT22;10421;49.142;9.232;2023-06-22T02:59:56;24.40;99.70
20526;DHT22;10421;49.142;9.232;2023-06-22T03:02:23;24.50;99.70
20526;DHT22;10421;49.142;9.232;2023-06-22T03:04:49;24.50;99.70
20526;DHT22;10421;49.142;9.232;2023-06-22T03:07:19;24.60;99.70
20526;DHT22;10421;49.142;9.232;2023-06-22T03:09:45;24.60;99.90
20526;DHT22;10421;49.142;9.232;2023-06-22T03:12:14;24.60;99.70
20526;DHT22;10421;49.142;9.232;2023-06-22T03:14:40;24.60;99.70
20526;DHT22;10421;49.142;9.232;2023-06-22T03:17:07;24.60;99.60
20526;DHT22;10421;49.142;9.232;2023-06-22T03:19:34;24.60;99.60
20526;DHT22;10421;49.142;9.232;2023-06-22T03:22:00;24.60;99.50
20526;DHT22;10421;49.142;9.232;2023-06-22T03:24:27;24.70;99.50
20526;DHT22;10421;49.142;9.232;2023-06-22T03:26:55;24.70;99.50
20526;DHT22;10421;49.142;9.232;2023-06-22T03:29:23;24.70;99.50
20526;DHT22;10421;49.142;9.232;2023-06-22T03:31:50;24.70;99.50
20526;DHT22;10421;49.142;9.232;2023-06-22T03:34:17;24.80;99.50
20526;DHT22;10421;49.142;9.232;2023-06-22T03:36:44;24.70;99.50
20526;DHT22;10421;49.142;9.232;2023-06-22T03:39:11;24.70;99.50
20526;DHT22;10421;49.142;9.232;2023-06-22T03:41:38;24.80;99.50
20526;DHT22;10421;49.142;9.232;2023-06-22T03:44:05;24.70;99.50
20526;DHT22;10421;49.142;9.232;2023-06-22T03:46:33;24.70;99.50
20526;DHT22;10421;49.142;9.232;2023-06-22T03:49:00;24.70;99.50
20526;DHT22;10421;49.142;9.232;2023-06-22T03:51:28;24.70;99.50
20526;DHT22;10421;49.142;9.232;2023-06-22T03:53:55;24.80;99.50
20526;DHT22;10421;49.142;9.232;2023-06-22T03:56:22;24.80;99.50
20526;DHT22;10421;49.142;9.232;2023-06-22T03:58:49;24.80;99.50
20526;DHT22;10421;49.142;9.232;2023-06-22T04:01:16;24.80;99.50
20526;DHT22;10421;49.142;9.232;2023-06-22T04:06:24;24.80;99.50
20526;DHT22;10421;49.142;9.232;2023-06-22T04:08:51;24.80;99.40
20526;DHT22;10421;49.142;9.232;2023-06-22T04:11:18;24.90;99.40
20526;DHT22;10421;49.142;9.232;2023-06-22T04:13:45;24.90;99.40
20526;DHT22;10421;49.142;9.232;2023-06-22T04:16:11;24.90;99.40
20526;DHT22;10421;49.142;9.232;2023-06-22T04:18:38;24.90;99.30
20526;DHT22;10421;49.142;9.232;2023-06-22T04:21:05;25.00;99.40
20526;DHT22;10421;49.142;9.232;2023-06-22T04:23:33;25.00;99.40
20526;DHT22;10421;49.142;9.232;2023-06-22T04:25:59;25.00;99.30
20526;DHT22;10421;49.142;9.232;2023-06-22T04:28:26;25.00;99.30
20526;DHT22;10421;49.142;9.232;2023-06-22T04:30:53;25.00;99.30
20526;DHT22;10421;49.142;9.232;2023-06-22T04:33:23;25.00;99.20
20526;DHT22;10421;49.142;9.232;2023-06-22T04:35:50;25.00;99.20
20526;DHT22;10421;49.142;9.232;2023-06-22T04:38:17;25.10;99.20
20526;DHT22;10421;49.142;9.232;2023-06-22T04:40:45;25.10;99.10
20526;DHT22;10421;49.142;9.232;2023-06-22T04:43:11;25.10;99.10
20526;DHT22;10421;49.142;9.232;2023-06-22T04:45:38;25.10;99.10
20526;DHT22;10421;49.142;9.232;2023-06-22T04:48:05;25.10;99.10
20526;DHT22;10421;49.142;9.232;2023-06-22T04:50:34;25.20;99.50
20526;DHT22;10421;49.142;9.232;2023-06-22T04:53:01;25.20;99.20
20526;DHT22;10421;49.142;9.232;2023-06-22T04:55:30;25.20;99.10
20526;DHT22;10421;49.142;9.232;2023-06-22T04:57:58;25.30;99.10
20526;DHT22;10421;49.142;9.232;2023-06-22T05:00:31;25.30;99.10
20526;DHT22;10421;49.142;9.232;2023-06-22T05:02:57;25.30;99.10
20526;DHT22;10421;49.142;9.232;2023-06-22T05:05:24;25.30;99.10
20526;DHT22;10421;49.142;9.232;2023-06-22T05:07:52;25.40;99.00
20526;DHT22;10421;49.142;9.232;2023-06-22T05:10:20;25.40;99.00
20526;DHT22;10421;49.142;9.232;2023-06-22T05:12:47;25.50;99.00
20526;DHT22;10421;49.142;9.232;2023-06-22T05:15:15;25.50;99.00
20526;DHT22;10421;49.142;9.232;2023-06-22T05:17:42;25.50;98.90
20526;DHT22;10421;49.142;9.232;2023-06-22T05:20:10;25.60;98.80
20526;DHT22;10421;49.142;9.232;2023-06-22T05:22:37;25.60;98.80
20526;DHT22;10421;49.142;9.232;2023-06-22T05:25:05;25.70;98.70
20526;DHT22;10421;49.142;9.232;2023-06-22T05:27:31;25.80;98.70
20526;DHT22;10421;49.142;9.232;2023-06-22T05:29:58;25.80;98.90
20526;DHT22;10421;49.142;9.232;2023-06-22T05:32:26;25.90;98.50
20526;DHT22;10421;49.142;9.232;2023-06-22T05:34:53;25.90;98.40
20526;DHT22;10421;49.142;9.232;2023-06-22T05:37:20;26.00;98.40
20526;DHT22;10421;49.142;9.232;2023-06-22T05:39:46;26.10;98.30
20526;DHT22;10421;49.142;9.232;2023-06-22T05:42:13;26.00;98.20
20526;DHT22;10421;49.142;9.232;2023-06-22T05:44:40;26.10;98.10
20526;DHT22;10421;49.142;9.232;2023-06-22T05:47:07;26.10;98.10
20526;DHT22;10421;49.142;9.232;2023-06-22T05:49:35;26.10;98.00
20526;DHT22;10421;49.142;9.232;2023-06-22T05:52:02;26.20;98.00
20526;DHT22;10421;49.142;9.232;2023-06-22T05:54:29;26.10;97.90
20526;DHT22;10421;49.142;9.232;2023-06-22T05:56:56;26.20;97.90
20526;DHT22;10421;49.142;9.232;2023-06-22T05:59:23;26.20;97.90
20526;DHT22;10421;49.142;9.232;2023-06-22T06:01:50;26.20;97.80
20526;DHT22;10421;49.142;9.232;2023-06-22T06:04:17;26.30;97.80
20526;DHT22;10421;49.142;9.232;2023-06-22T06:06:45;26.40;97.80
20526;DHT22;10421;49.142;9.232;2023-06-22T06:09:13;26.40;97.80
20526;DHT22;10421;49.142;9.232;2023-06-22T06:11:40;26.40;97.70
20526;DHT22;10421;49.142;9.232;2023-06-22T06:14:07;26.50;97.60
20526;DHT22;10421;49.142;9.232;2023-06-22T06:16:34;26.50;97.60
20526;DHT22;10421;49.142;9.232;2023-06-22T06:19:00;26.60;97.50
20526;DHT22;10421;49.142;9.232;2023-06-22T06:21:27;26.60;97.40
20526;DHT22;10421;49.142;9.232;2023-06-22T06:23:55;26.60;97.30
20526;DHT22;10421;49.142;9.232;2023-06-22T06:26:22;26.70;97.40
20526;DHT22;10421;49.142;9.232;2023-06-22T06:28:53;26.80;97.30
20526;DHT22;10421;49.142;9.232;2023-06-22T06:31:20;26.80;97.20
20526;DHT22;10421;49.142;9.232;2023-06-22T06:33:48;26.80;97.00
20526;DHT22;10421;49.142;9.232;2023-06-22T06:36:15;26.90;96.90
20526;DHT22;10421;49.142;9.232;2023-06-22T06:38:42;27.00;96.80
20526;DHT22;10421;49.142;9.232;2023-06-22T06:41:10;27.00;96.30
20526;DHT22;10421;49.142;9.232;2023-06-22T06:43:36;27.00;96.20
20526;DHT22;10421;49.142;9.232;2023-06-22T06:46:03;27.00;96.00
20526;DHT22;10421;49.142;9.232;2023-06-22T06:48:30;27.00;95.80
20526;DHT22;10421;49.142;9.232;2023-06-22T06:50:56;27.10;95.90
20526;DHT22;10421;49.142;9.232;2023-06-22T06:53:23;27.10;95.70
20526;DHT22;10421;49.142;9.232;2023-06-22T06:55:50;27.20;95.50
20526;DHT22;10421;49.142;9.232;2023-06-22T06:58:21;27.20;95.40
20526;DHT22;10421;49.142;9.232;2023-06-22T07:00:48;27.30;95.40
20526;DHT22;10421;49.142;9.232;2023-06-22T07:03:15;27.40;95.20
20526;DHT22;10421;49.142;9.232;2023-06-22T07:05:42;27.40;95.00
20526;DHT22;10421;49.142;9.232;2023-06-22T07:08:08;27.50;94.80
20526;DHT22;10421;49.142;9.232;2023-06-22T07:10:36;27.60;94.70
20526;DHT22;10421;49.142;9.232;2023-06-22T07:13:02;27.70;94.70
20526;DHT22;10421;49.142;9.232;2023-06-22T07:15:30;27.70;94.60
20526;DHT22;10421;49.142;9.232;2023-06-22T07:17:57;27.80;94.40
20526;DHT22;10421;49.142;9.232;2023-06-22T07:20:24;27.90;94.30
20526;DHT22;10421;49.142;9.232;2023-06-22T07:22:51;28.00;94.30
20526;DHT22;10421;49.142;9.232;2023-06-22T07:25:18;28.10;94.10
20526;DHT22;10421;49.142;9.232;2023-06-22T07:27:47;28.10;93.60
20526;DHT22;10421;49.142;9.232;2023-06-22T07:30:22;28.20;93.60
20526;DHT22;10421;49.142;9.232;2023-06-22T07:32:50;28.30;93.50
20526;DHT22;10421;49.142;9.232;2023-06-22T07:35:17;28.30;93.10
20526;DHT22;10421;49.142;9.232;2023-06-22T07:37:44;28.30;93.10
20526;DHT22;10421;49.142;9.232;2023-06-22T07:40:12;28.40;93.00
20526;DHT22;10421;49.142;9.232;2023-06-22T07:42:39;28.40;92.90
20526;DHT22;10421;49.142;9.232;2023-06-22T07:45:07;28.40;92.80
20526;DHT22;10421;49.142;9.232;2023-06-22T07:47:34;28.50;92.80
20526;DHT22;10421;49.142;9.232;2023-06-22T07:50:03;28.60;92.80
20526;DHT22;10421;49.142;9.232;2023-06-22T07:52:30;28.70;92.70
20526;DHT22;10421;49.142;9.232;2023-06-22T07:54:57;28.70;92.50
20526;DHT22;10421;49.142;9.232;2023-06-22T07:57:24;28.80;92.40
20526;DHT22;10421;49.142;9.232;2023-06-22T07:59:57;28.90;92.20
20526;DHT22;10421;49.142;9.232;2023-06-22T08:02:24;29.00;92.00
20526;DHT22;10421;49.142;9.232;2023-06-22T08:04:51;29.10;91.90
20526;DHT22;10421;49.142;9.232;2023-06-22T08:07:19;29.20;91.90
20526;DHT22;10421;49.142;9.232;2023-06-22T08:09:47;29.20;91.70
20526;DHT22;10421;49.142;9.232;2023-06-22T08:12:14;29.20;91.60
20526;DHT22;10421;49.142;9.232;2023-06-22T08:14:42;29.30;91.30
20526;DHT22;10421;49.142;9.232;2023-06-22T08:17:08;29.40;91.00
20526;DHT22;10421;49.142;9.232;2023-06-22T08:19:36;29.50;90.90
20526;DHT22;10421;49.142;9.232;2023-06-22T08:22:06;29.60;90.80
20526;DHT22;10421;49.142;9.232;2023-06-22T08:24:34;29.60;90.80
20526;DHT22;10421;49.142;9.232;2023-06-22T08:27:01;29.70;90.80
20526;DHT22;10421;49.142;9.232;2023-06-22T08:29:27;29.80;90.40
20526;DHT22;10421;49.142;9.232;2023-06-22T08:31:54;30.00;90.00
20526;DHT22;10421;49.142;9.232;2023-06-22T08:34:21;30.00;89.90
20526;DHT22;10421;49.142;9.232;2023-06-22T08:36:48;30.10;89.80
20526;DHT22;10421;49.142;9.232;2023-06-22T08:39:17;30.30;89.30
20526;DHT22;10421;49.142;9.232;2023-06-22T08:41:45;30.30;88.30
20526;DHT22;10421;49.142;9.232;2023-06-22T08:44:12;30.40;88.00
20526;DHT22;10421;49.142;9.232;2023-06-22T08:46:38;30.50;87.60
20526;DHT22;10421;49.142;9.232;2023-06-22T08:49:06;30.50;88.00
20526;DHT22;10421;49.142;9.232;2023-06-22T08:51:33;30.70;87.50
20526;DHT22;10421;49.142;9.232;2023-06-22T08:54:00;30.80;86.50
20526;DHT22;10421;49.142;9.232;2023-06-22T08:56:27;31.00;86.30
20526;DHT22;10421;49.142;9.232;2023-06-22T08:58:55;31.00;85.70
20526;DHT22;10421;49.142;9.232;2023-06-22T09:01:22;31.10;85.20
20526;DHT22;10421;49.142;9.232;2023-06-22T09:03:48;31.20;85.30
20526;DHT22;10421;49.142;9.232;2023-06-22T09:06:19;31.30;83.80
20526;DHT22;10421;49.142;9.232;2023-06-22T09:08:46;31.30;83.20
20526;DHT22;10421;49.142;9.232;2023-06-22T09:11:13;31.30;83.50
20526;DHT22;10421;49.142;9.232;2023-06-22T09:13:40;31.50;83.50
20526;DHT22;10421;49.142;9.232;2023-06-22T09:16:08;31.40;82.20
20526;DHT22;10421;49.142;9.232;2023-06-22T09:18:34;31.50;81.80
20526;DHT22;10421;49.142;9.232;2023-06-22T09:21:01;31.40;80.90
20526;DHT22;10421;49.142;9.232;2023-06-22T09:23:28;31.50;80.90
20526;DHT22;10421;49.142;9.232;2023-06-22T09:25:55;31.50;80.70
20526;DHT22;10421;49.142;9.232;2023-06-22T09:28:22;31.40;80.00
20526;DHT22;10421;49.142;9.232;2023-06-22T09:30:48;31.30;79.80
20526;DHT22;10421;49.142;9.232;2023-06-22T09:33:16;31.20;80.30
20526;DHT22;10421;49.142;9.232;2023-06-22T09:35:45;31.10;80.20
20526;DHT22;10421;49.142;9.232;2023-06-22T09:38:12;31.10;80.20
20526;DHT22;10421;49.142;9.232;2023-06-22T09:40:38;31.10;80.50
20526;DHT22;10421;49.142;9.232;2023-06-22T09:43:05;31.20;80.90
20526;DHT22;10421;49.142;9.232;2023-06-22T09:45:32;31.10;81.00
20526;DHT22;10421;49.142;9.232;2023-06-22T09:47:59;31.10;81.20
20526;DHT22;10421;49.142;9.232;2023-06-22T09:50:27;31.20;81.10
20526;DHT22;10421;49.142;9.232;2023-06-22T09:52:53;31.30;80.90
20526;DHT22;10421;49.142;9.232;2023-06-22T09:55:21;31.40;81.30
20526;DHT22;10421;49.142;9.232;2023-06-22T09:57:47;31.50;81.10
20526;DHT22;10421;49.142;9.232;2023-06-22T10:00:16;31.50;81.20
20526;DHT22;10421;49.142;9.232;2023-06-22T10:02:44;31.50;81.30
20526;DHT22;10421;49.142;9.232;2023-06-22T10:05:11;31.60;81.10
20526;DHT22;10421;49.142;9.232;2023-06-22T10:07:40;31.70;81.10
20526;DHT22;10421;49.142;9.232;2023-06-22T10:10:09;31.90;81.30
20526;DHT22;10421;49.142;9.232;2023-06-22T10:12:35;32.10;81.00
20526;DHT22;10421;49.142;9.232;2023-06-22T10:15:03;32.30;80.20
20526;DHT22;10421;49.142;9.232;2023-06-22T10:17:29;32.50;79.40
20526;DHT22;10421;49.142;9.232;2023-06-22T10:19:56;32.60;79.10
20526;DHT22;10421;49.142;9.232;2023-06-22T10:22:23;32.80;79.00
20526;DHT22;10421;49.142;9.232;2023-06-22T10:24:51;33.00;78.50
20526;DHT22;10421;49.142;9.232;2023-06-22T10:27:18;33.20;78.00
20526;DHT22;10421;49.142;9.232;2023-06-22T10:29:44;33.30;77.50
20526;DHT22;10421;49.142;9.232;2023-06-22T10:32:11;33.40;77.10
20526;DHT22;10421;49.142;9.232;2023-06-22T10:34:38;33.50;75.90
20526;DHT22;10421;49.142;9.232;2023-06-22T10:37:05;33.60;75.00
20526;DHT22;10421;49.142;9.232;2023-06-22T10:39:32;33.60;74.70
20526;DHT22;10421;49.142;9.232;2023-06-22T10:42:00;33.60;74.10
20526;DHT22;10421;49.142;9.232;2023-06-22T10:44:27;33.60;74.20
20526;DHT22;10421;49.142;9.232;2023-06-22T10:46:57;33.60;74.40
20526;DHT22;10421;49.142;9.232;2023-06-22T10:49:23;33.60;74.40
20526;DHT22;10421;49.142;9.232;2023-06-22T10:51:50;33.60;74.30
20526;DHT22;10421;49.142;9.232;2023-06-22T10:54:17;33.60;73.50
20526;DHT22;10421;49.142;9.232;2023-06-22T10:56:44;33.70;73.60
20526;DHT22;10421;49.142;9.232;2023-06-22T10:59:12;33.80;73.90
20526;DHT22;10421;49.142;9.232;2023-06-22T11:01:39;33.80;73.40
20526;DHT22;10421;49.142;9.232;2023-06-22T11:04:06;33.90;72.80
20526;DHT22;10421;49.142;9.232;2023-06-22T11:06:33;34.10;72.80
20526;DHT22;10421;49.142;9.232;2023-06-22T11:09:00;34.10;72.60
20526;DHT22;10421;49.142;9.232;2023-06-22T11:11:26;34.30;72.50
20526;DHT22;10421;49.142;9.232;2023-06-22T11:13:53;34.40;72.10
20526;DHT22;10421;49.142;9.232;2023-06-22T11:16:21;34.50;72.00
20526;DHT22;10421;49.142;9.232;2023-06-22T11:18:48;34.60;71.80
20526;DHT22;10421;49.142;9.232;2023-06-22T11:21:15;34.60;71.40
20526;DHT22;10421;49.142;9.232;2023-06-22T11:23:42;34.50;71.70
20526;DHT22;10421;49.142;9.232;2023-06-22T11:26:08;34.50;71.90
20526;DHT22;10421;49.142;9.232;2023-06-22T11:28:35;34.40;71.40
20526;DHT22;10421;49.142;9.232;2023-06-22T11:31:02;34.40;71.60
20526;DHT22;10421;49.142;9.232;2023-06-22T11:33:31;34.50;71.70
20526;DHT22;10421;49.142;9.232;2023-06-22T11:35:58;34.50;70.80
20526;DHT22;10421;49.142;9.232;2023-06-22T11:38:25;34.60;70.80
20526;DHT22;10421;49.142;9.232;2023-06-22T11:40:52;34.50;70.90
20526;DHT22;10421;49.142;9.232;2023-06-22T11:43:19;34.60;71.10
20526;DHT22;10421;49.142;9.232;2023-06-22T11:45:45;34.70;70.90
20526;DHT22;10421;49.142;9.232;2023-06-22T11:48:12;34.70;70.60
20526;DHT22;10421;49.142;9.232;2023-06-22T11:50:40;34.70;70.60
20526;DHT22;10421;49.142;9.232;2023-06-22T11:53:07;34.70;70.40
20526;DHT22;10421;49.142;9.232;2023-06-22T11:55:34;34.70;70.60
20526;DHT22;10421;49.142;9.232;2023-06-22T11:58:00;34.70;71.50
20526;DHT22;10421;49.142;9.232;2023-06-22T12:00:29;34.60;70.80
20526;DHT22;10421;49.142;9.232;2023-06-22T12:02:56;34.50;71.20
20526;DHT22;10421;49.142;9.232;2023-06-22T12:05:22;34.40;71.20
20526;DHT22;10421;49.142;9.232;2023-06-22T12:07:53;34.40;71.10
20526;DHT22;10421;49.142;9.232;2023-06-22T12:10:20;34.30;71.30
20526;DHT22;10421;49.142;9.232;2023-06-22T12:12:47;34.30;71.70
20526;DHT22;10421;49.142;9.232;2023-06-22T12:15:13;34.20;72.00
20526;DHT22;10421;49.142;9.232;2023-06-22T12:17:40;34.20;71.70
20526;DHT22;10421;49.142;9.232;2023-06-22T12:20:08;34.20;71.20
20526;DHT22;10421;49.142;9.232;2023-06-22T12:22:35;34.20;71.50
20526;DHT22;10421;49.142;9.232;2023-06-22T12:25:05;34.20;71.60
20526;DHT22;10421;49.142;9.232;2023-06-22T12:27:32;34.10;71.80
20526;DHT22;10421;49.142;9.232;2023-06-22T12:29:59;34.10;71.60
20526;DHT22;10421;49.142;9.232;2023-06-22T12:32:25;34.10;72.10
20526;DHT22;10421;49.142;9.232;2023-06-22T12:34:52;34.00;72.00
20526;DHT22;10421;49.142;9.232;2023-06-22T12:37:19;34.00;72.50
20526;DHT22;10421;49.142;9.232;2023-06-22T12:39:46;33.90;72.70
20526;DHT22;10421;49.142;9.232;2023-06-22T12:42:15;33.90;72.60
20526;DHT22;10421;49.142;9.232;2023-06-22T12:44:42;33.80;73.00
20526;DHT22;10421;49.142;9.232;2023-06-22T12:47:10;33.70;72.90
20526;DHT22;10421;49.142;9.232;2023-06-22T12:49:37;33.60;72.80
20526;DHT22;10421;49.142;9.232;2023-06-22T12:52:08;33.60;73.20
20526;DHT22;10421;49.142;9.232;2023-06-22T12:54:35;33.60;74.20
20526;DHT22;10421;49.142;9.232;2023-06-22T12:57:02;33.70;74.50
20526;DHT22;10421;49.142;9.232;2023-06-22T12:59:30;33.60;73.60
20526;DHT22;10421;49.142;9.232;2023-06-22T13:01:57;33.50;74.10
20526;DHT22;10421;49.142;9.232;2023-06-22T13:04:24;33.40;74.50
20526;DHT22;10421;49.142;9.232;2023-06-22T13:06:50;33.40;74.80
20526;DHT22;10421;49.142;9.232;2023-06-22T13:09:18;33.40;74.80
20526;DHT22;10421;49.142;9.232;2023-06-22T13:11:45;33.50;75.20
20526;DHT22;10421;49.142;9.232;2023-06-22T13:14:12;33.60;75.20
20526;DHT22;10421;49.142;9.232;2023-06-22T13:16:40;33.60;75.30
20526;DHT22;10421;49.142;9.232;2023-06-22T13:19:06;33.60;75.30
20526;DHT22;10421;49.142;9.232;2023-06-22T13:21:33;33.60;75.30
20526;DHT22;10421;49.142;9.232;2023-06-22T13:24:00;33.60;75.50
20526;DHT22;10421;49.142;9.232;2023-06-22T13:26:27;33.50;75.90
20526;DHT22;10421;49.142;9.232;2023-06-22T13:28:55;33.50;75.60
20526;DHT22;10421;49.142;9.232;2023-06-22T13:31:22;33.40;75.90
20526;DHT22;10421;49.142;9.232;2023-06-22T13:33:50;33.40;76.70
20526;DHT22;10421;49.142;9.232;2023-06-22T13:36:18;33.30;77.50
20526;DHT22;10421;49.142;9.232;2023-06-22T13:38:45;33.30;77.80
20526;DHT22;10421;49.142;9.232;2023-06-22T13:41:12;33.20;78.00
20526;DHT22;10421;49.142;9.232;2023-06-22T13:43:39;33.20;78.40
20526;DHT22;10421;49.142;9.232;2023-06-22T13:46:06;33.20;79.00
20526;DHT22;10421;49.142;9.232;2023-06-22T13:48:32;33.10;78.50
20526;DHT22;10421;49.142;9.232;2023-06-22T13:51:00;33.10;78.60
20526;DHT22;10421;49.142;9.232;2023-06-22T13:53:27;33.00;79.40
20526;DHT22;10421;49.142;9.232;2023-06-22T13:55:55;33.00;79.80
20526;DHT22;10421;49.142;9.232;2023-06-22T13:58:22;33.20;80.20
20526;DHT22;10421;49.142;9.232;2023-06-22T14:00:49;33.40;80.10
20526;DHT22;10421;49.142;9.232;2023-06-22T14:03:15;33.50;78.60
20526;DHT22;10421;49.142;9.232;2023-06-22T14:05:42;33.60;78.10
20526;DHT22;10421;49.142;9.232;2023-06-22T14:08:11;33.90;77.80
20526;DHT22;10421;49.142;9.232;2023-06-22T14:10:38;34.10;76.80
20526;DHT22;10421;49.142;9.232;2023-06-22T14:13:05;34.30;76.10
20526;DHT22;10421;49.142;9.232;2023-06-22T14:15:32;34.60;75.30
20526;DHT22;10421;49.142;9.232;2023-06-22T14:17:59;34.80;74.20
20526;DHT22;10421;49.142;9.232;2023-06-22T14:20:25;35.00;73.50
20526;DHT22;10421;49.142;9.232;2023-06-22T14:22:52;35.10;73.10
20526;DHT22;10421;49.142;9.232;2023-06-22T14:25:20;35.20;71.50
20526;DHT22;10421;49.142;9.232;2023-06-22T14:27:47;35.30;69.20
20526;DHT22;10421;49.142;9.232;2023-06-22T14:30:14;35.20;66.80
20526;DHT22;10421;49.142;9.232;2023-06-22T14:32:43;35.20;65.70
20526;DHT22;10421;49.142;9.232;2023-06-22T14:35:10;35.10;66.80
20526;DHT22;10421;49.142;9.232;2023-06-22T14:37:37;35.10;67.60
20526;DHT22;10421;49.142;9.232;2023-06-22T14:40:04;34.90;64.70
20526;DHT22;10421;49.142;9.232;2023-06-22T14:42:32;34.90;63.50
20526;DHT22;10421;49.142;9.232;2023-06-22T14:44:59;34.70;64.90
20526;DHT22;10421;49.142;9.232;2023-06-22T14:47:25;34.60;63.60
20526;DHT22;10421;49.142;9.232;2023-06-22T14:49:52;34.60;64.70
20526;DHT22;10421;49.142;9.232;2023-06-22T14:52:20;34.50;65.70
20526;DHT22;10421;49.142;9.232;2023-06-22T14:54:47;34.40;66.90
20526;DHT22;10421;49.142;9.232;2023-06-22T14:57:13;34.30;68.60
20526;DHT22;10421;49.142;9.232;2023-06-22T14:59:44;34.20;69.00
20526;DHT22;10421;49.142;9.232;2023-06-22T15:02:11;34.10;69.50
20526;DHT22;10421;49.142;9.232;2023-06-22T15:04:38;34.00;70.00
20526;DHT22;10421;49.142;9.232;2023-06-22T15:07:05;34.00;70.50
20526;DHT22;10421;49.142;9.232;2023-06-22T15:09:31;34.00;70.90
20526;DHT22;10421;49.142;9.232;2023-06-22T15:11:58;33.90;70.20
20526;DHT22;10421;49.142;9.232;2023-06-22T15:14:26;34.00;70.90
20526;DHT22;10421;49.142;9.232;2023-06-22T15:16:54;34.00;69.40
20526;DHT22;10421;49.142;9.232;2023-06-22T15:19:21;34.00;69.40
20526;DHT22;10421;49.142;9.232;2023-06-22T15:21:48;34.10;70.20
20526;DHT22;10421;49.142;9.232;2023-06-22T15:24:15;34.10;69.90
20526;DHT22;10421;49.142;9.232;2023-06-22T15:26:41;34.20;70.20
20526;DHT22;10421;49.142;9.232;2023-06-22T15:29:08;34.30;69.70
20526;DHT22;10421;49.142;9.232;2023-06-22T15:31:35;34.40;69.90
20526;DHT22;10421;49.142;9.232;2023-06-22T15:34:03;34.40;69.40